Atlantis Almeria — 9HA2382 — position and weather

sailwx.info

Track history (hours):
 
Tides and Currents Weather Stations Pressure Air Temp Water Temp Dewpoint Dewpoint Depression Visibility Wind Speed Wind Dir Waves Ship Positions

Atlantis Almeria

Last reported at 2018-Feb-16 21:26 UTC. Time now 2018-Feb-18 09:05 UTC.
Position N 43°11' E 009°09'.

Length 109 m; draft 6.3 m.

Type: Tanker. MMSI: 248483000.

Date/timePositionNaut miles runAvg speedWind from/ knotsBaromVisibWave heightAir tempDewpointWater temp
2018-Feb-16 21:26N 43°11' E 009°09'511.6
2018-Feb-16 21:00N 43°15' E 009°14'611.9
2018-Feb-16 20:30N 43°19' E 009°19'611.6
2018-Feb-16 20:00N 43°23' E 009°25'3 6.1
2018-Feb-16 19:30N 43°25' E 009°28'0 0.7
2018-Feb-16 19:00N 43°24' E 009°28'0 0.8
2018-Feb-16 18:30N 43°24' E 009°29'0 1.0
2018-Feb-16 18:00N 43°23' E 009°29'0 0.4
2018-Feb-16 17:30N 43°23' E 009°29'1411.1
2018-Feb-16 16:17N 43°18' E 009°46'411.5
2018-Feb-16 15:58N 43°17' E 009°51'511.8
2018-Feb-16 15:30N 43°19' E 009°58'611.5
2018-Feb-16 15:01N 43°22' E 010°05'611.6
2018-Feb-16 14:30N 43°27' E 010°09'5 9.2
2018-Feb-16 14:00N 43°31' E 010°13'4 8.0
2018-Feb-16 13:31N 43°33' E 010°18'2 2.9
2018-Feb-16 12:52N 43°34' E 010°19'0 0.0
2018-Feb-16 12:29N 43°34' E 010°19'0 0.0
2018-Feb-16 11:59N 43°34' E 010°19'0 0.0
2018-Feb-16 11:29N 43°34' E 010°19'0 0.0
2018-Feb-16 10:59N 43°34' E 010°19'0 0.0
2018-Feb-16 10:29N 43°34' E 010°19'0 0.0
2018-Feb-16 09:59N 43°34' E 010°19'0 0.0
2018-Feb-16 09:29N 43°34' E 010°19'0 0.0
2018-Feb-16 08:59N 43°34' E 010°19'0 0.0
2018-Feb-16 08:26N 43°34' E 010°19'0 0.0
2018-Feb-16 07:56N 43°34' E 010°19'0 0.0
2018-Feb-16 07:23N 43°34' E 010°19'0 0.0
2018-Feb-16 06:59N 43°34' E 010°19'0 0.0
2018-Feb-16 06:29N 43°34' E 010°19'0 0.0
2018-Feb-16 05:59N 43°34' E 010°19'0 0.0
2018-Feb-16 05:29N 43°34' E 010°19'0 0.0
2018-Feb-16 04:50N 43°34' E 010°19'0 0.0
2018-Feb-16 04:29N 43°34' E 010°19'0 0.0
2018-Feb-16 03:59N 43°34' E 010°19'0 0.0
2018-Feb-16 03:29N 43°34' E 010°19'0 0.0
2018-Feb-16 02:59N 43°34' E 010°19'0 0.0
2018-Feb-16 02:29N 43°34' E 010°19'0 0.0
2018-Feb-16 01:59N 43°34' E 010°19'0 0.0
2018-Feb-16 01:26N 43°34' E 010°19'0 0.0
2018-Feb-16 00:59N 43°34' E 010°19'0 0.0
2018-Feb-16 00:29N 43°34' E 010°19'0 0.0
2018-Feb-15 23:59N 43°34' E 010°19'0 0.0
2018-Feb-15 23:26N 43°34' E 010°19'0 0.0
2018-Feb-15 22:59N 43°34' E 010°19'0 0.0
2018-Feb-15 22:29N 43°34' E 010°19'0 0.0
2018-Feb-15 21:59N 43°34' E 010°19'0 0.0
2018-Feb-15 21:29N 43°34' E 010°19'0 0.0
2018-Feb-15 20:59N 43°34' E 010°19'0 0.0
2018-Feb-15 20:29N 43°34' E 010°19'0 0.0
2018-Feb-15 19:59N 43°34' E 010°19'0 0.0
2018-Feb-15 19:29N 43°34' E 010°19'0 0.0
2018-Feb-15 18:59N 43°34' E 010°19'0 0.0
2018-Feb-15 18:29N 43°34' E 010°19'0 0.0
2018-Feb-15 17:59N 43°34' E 010°19'0 0.0
2018-Feb-15 17:29N 43°34' E 010°19'0 0.0
2018-Feb-15 16:59N 43°34' E 010°19'0 0.0
2018-Feb-15 16:23N 43°34' E 010°19'0 0.0
2018-Feb-15 15:59N 43°34' E 010°19'0 0.0
2018-Feb-15 15:29N 43°34' E 010°19'0 0.0
2018-Feb-15 14:59N 43°34' E 010°19'0 0.0
2018-Feb-15 14:23N 43°34' E 010°19'0 0.0
2018-Feb-15 13:56N 43°34' E 010°19'0 0.0
2018-Feb-15 13:26N 43°34' E 010°19'0 0.0
2018-Feb-15 12:59N 43°34' E 010°19'0 0.0
2018-Feb-15 12:29N 43°34' E 010°19'0 0.0
2018-Feb-15 11:59N 43°34' E 010°19'0 0.0
2018-Feb-15 11:29N 43°34' E 010°19'0 0.0
2018-Feb-15 10:59N 43°34' E 010°19'0 0.0
2018-Feb-15 10:29N 43°34' E 010°19'0 0.0
2018-Feb-15 09:59N 43°34' E 010°19'0 0.0
2018-Feb-15 09:29N 43°34' E 010°19'0 0.0
2018-Feb-15 08:59N 43°34' E 010°19'0 0.0
2018-Feb-15 08:29N 43°34' E 010°19'0 0.0
2018-Feb-15 07:59N 43°34' E 010°19'0 0.0
2018-Feb-15 07:29N 43°34' E 010°19'0 0.0
2018-Feb-15 06:59N 43°34' E 010°19'0 0.0
2018-Feb-15 06:23N 43°34' E 010°19'0 0.0
2018-Feb-15 05:59N 43°34' E 010°19'0 0.0
2018-Feb-15 05:29N 43°34' E 010°19'0 0.0
2018-Feb-15 04:59N 43°34' E 010°19'0 0.0
2018-Feb-15 04:29N 43°34' E 010°19'0 0.0
2018-Feb-15 03:59N 43°34' E 010°19'0 0.0
2018-Feb-15 03:29N 43°34' E 010°19'0 0.0
2018-Feb-15 02:59N 43°34' E 010°19'0 0.0
2018-Feb-15 02:29N 43°34' E 010°19'0 0.0
2018-Feb-15 01:59N 43°34' E 010°19'0 0.0
2018-Feb-15 01:29N 43°34' E 010°19'0 0.0
2018-Feb-15 00:59N 43°34' E 010°19'0 0.0
2018-Feb-15 00:29N 43°34' E 010°19'0 0.0
2018-Feb-14 23:59N 43°34' E 010°19'0 0.0
2018-Feb-14 23:29N 43°34' E 010°19'0 0.0
2018-Feb-14 22:59N 43°34' E 010°19'0 0.0
2018-Feb-14 22:29N 43°34' E 010°19'0 0.0
2018-Feb-14 21:59N 43°34' E 010°19'0 0.0
2018-Feb-14 21:29N 43°34' E 010°19'0 0.0
2018-Feb-14 20:59N 43°34' E 010°19'0 0.0
2018-Feb-14 20:29N 43°34' E 010°19'0 0.0
2018-Feb-14 19:59N 43°34' E 010°19'0 0.0
2018-Feb-14 19:29N 43°34' E 010°19'0 0.0
2018-Feb-14 18:59N 43°34' E 010°19'0 0.0
2018-Feb-14 18:29N 43°34' E 010°19'0 0.0
2018-Feb-14 17:59N 43°34' E 010°19'0 0.0
2018-Feb-14 17:26N 43°34' E 010°19'0 0.0
2018-Feb-14 16:59N 43°34' E 010°19'0 0.0
2018-Feb-14 16:29N 43°34' E 010°19'0 0.0
2018-Feb-14 15:59N 43°34' E 010°19'0 0.0
2018-Feb-14 15:29N 43°34' E 010°19'0 0.0
2018-Feb-14 14:59N 43°34' E 010°19'0 0.0
2018-Feb-14 14:29N 43°34' E 010°19'0 0.0
2018-Feb-14 13:59N 43°34' E 010°19'0 0.0
2018-Feb-14 13:29N 43°34' E 010°19'0 0.0
2018-Feb-14 09:32N 43°34' E 010°19'0 1.1
2018-Feb-14 09:30N 43°34' E 010°19'2 5.0
2018-Feb-14 09:00N 43°32' E 010°17'3 6.3
2018-Feb-14 08:30N 43°30' E 010°15'1 2.2
2018-Feb-14 07:59N 43°29' E 010°16'0 0.1
2018-Feb-14 07:29N 43°29' E 010°16'0 0.1
2018-Feb-14 06:59N 43°29' E 010°16'0 0.0
2018-Feb-14 06:29N 43°29' E 010°16'0 0.1
2018-Feb-14 05:59N 43°29' E 010°16'0 0.0
2018-Feb-14 05:29N 43°29' E 010°16'0 0.0
2018-Feb-14 04:59N 43°29' E 010°16'0 0.2
2018-Feb-14 04:29N 43°29' E 010°16'0 0.1
2018-Feb-14 03:59N 43°29' E 010°16'0 0.2
2018-Feb-14 03:26N 43°29' E 010°16'0 0.0
2018-Feb-14 02:59N 43°29' E 010°16'0 0.0
2018-Feb-14 02:29N 43°29' E 010°16'0 0.0
2018-Feb-14 01:59N 43°29' E 010°16'0 0.2
2018-Feb-14 01:29N 43°29' E 010°16'0 0.1
2018-Feb-14 00:59N 43°29' E 010°16'0 0.0
2018-Feb-14 00:29N 43°29' E 010°16'0 0.1
2018-Feb-13 23:59N 43°29' E 010°16'0 0.0
2018-Feb-13 23:29N 43°29' E 010°16'0 0.0
2018-Feb-13 22:59N 43°29' E 010°16'0 0.0
2018-Feb-13 22:29N 43°29' E 010°16'0 0.0
2018-Feb-13 21:59N 43°29' E 010°16'0 0.0
2018-Feb-13 21:29N 43°29' E 010°16'0 0.1
2018-Feb-13 20:59N 43°29' E 010°16'0 0.0
2018-Feb-13 20:29N 43°29' E 010°16'0 0.0
2018-Feb-13 19:59N 43°29' E 010°16'0 0.0
2018-Feb-13 19:29N 43°29' E 010°16'0 0.1
2018-Feb-13 18:56N 43°29' E 010°16'0 0.1
2018-Feb-13 18:29N 43°29' E 010°16'0 0.0
2018-Feb-13 17:56N 43°29' E 010°16'0 0.0
2018-Feb-13 17:17N 43°29' E 010°16'0 0.0
2018-Feb-13 16:59N 43°29' E 010°16'0 0.0
2018-Feb-13 16:29N 43°29' E 010°16'0 0.0
2018-Feb-13 15:59N 43°29' E 010°16'0 0.0
2018-Feb-13 15:29N 43°29' E 010°16'0 0.0
2018-Feb-13 14:59N 43°29' E 010°16'0 0.0
2018-Feb-13 14:29N 43°29' E 010°16'0 0.0
2018-Feb-13 13:56N 43°29' E 010°16'0 0.0
2018-Feb-13 13:29N 43°29' E 010°16'0 0.0
2018-Feb-13 12:59N 43°29' E 010°16'0 0.1
2018-Feb-13 12:29N 43°29' E 010°16'0 0.0
2018-Feb-13 11:59N 43°29' E 010°16'0 0.0
2018-Feb-13 11:23N 43°29' E 010°16'0 0.0
2018-Feb-13 10:59N 43°29' E 010°16'0 0.0
2018-Feb-13 10:29N 43°29' E 010°16'0 0.0
2018-Feb-13 09:59N 43°29' E 010°16'0 0.0
2018-Feb-13 09:29N 43°29' E 010°16'0 0.0
2018-Feb-13 08:59N 43°29' E 010°16'0 0.0
2018-Feb-13 08:29N 43°29' E 010°16'0 0.0
2018-Feb-13 07:59N 43°29' E 010°16'0 0.0
2018-Feb-13 07:29N 43°29' E 010°16'1 1.1
2018-Feb-13 07:00N 43°29' E 010°16'3 6.3
2018-Feb-13 06:30N 43°27' E 010°12'4 7.1
2018-Feb-13 06:00N 43°24' E 010°09'4 7.9
2018-Feb-13 05:30N 43°21' E 010°06'4 7.9
2018-Feb-13 05:00N 43°18' E 010°02'4 8.0
2018-Feb-13 04:30N 43°18' E 009°56'4 8.5
2018-Feb-13 04:00N 43°18' E 009°51'4 7.5
2018-Feb-13 03:30N 43°19' E 009°46'4 8.8
2018-Feb-13 03:00N 43°22' E 009°41'5 9.0
2018-Feb-13 02:30N 43°25' E 009°36'4 8.6
2018-Feb-13 02:00N 43°26' E 009°31'4 8.7
2018-Feb-13 01:30N 43°26' E 009°25'4 9.0
2018-Feb-13 01:00N 43°27' E 009°19'5 9.2
2018-Feb-13 00:30N 43°27' E 009°12'4 8.4
2018-Feb-13 00:00N 43°27' E 009°07'4 8.2
2018-Feb-12 23:30N 43°27' E 009°01'4 8.2
2018-Feb-12 23:00N 43°31' E 008°60'5 9.5
2018-Feb-12 22:30N 43°36' E 008°60'5 9.6
2018-Feb-12 22:00N 43°40' E 008°59'5 9.4
2018-Feb-12 21:30N 43°45' E 008°59'5 9.4
2018-Feb-12 21:00N 43°50' E 008°59'5 9.7
2018-Feb-12 20:30N 43°55' E 008°59'5 9.7
2018-Feb-12 20:00N 43°59' E 008°59'5 9.5
2018-Feb-12 19:30N 44°04' E 008°58'5 9.2
2018-Feb-12 19:00N 44°09' E 008°58'5 9.5
2018-Feb-12 18:30N 44°14' E 008°58'510.1
2018-Feb-12 18:00N 44°19' E 008°58'510.2
2018-Feb-12 17:30N 44°24' E 008°56'2 3.2
2018-Feb-12 17:00N 44°24' E 008°54'0 0.0
2018-Feb-12 16:27N 44°24' E 008°54'0 0.0
2018-Feb-12 16:00N 44°24' E 008°54'0 0.0
2018-Feb-12 15:06N 44°24' E 008°54'0 0.1
2018-Feb-12 15:00N 44°24' E 008°54'0 0.0
2018-Feb-12 14:27N 44°24' E 008°54'0 0.0
2018-Feb-12 13:57N 44°24' E 008°54'0 0.0
2018-Feb-12 13:30N 44°24' E 008°54'0 0.0
2018-Feb-12 12:57N 44°24' E 008°54'0 0.0
2018-Feb-12 12:30N 44°24' E 008°54'0 0.0
2018-Feb-12 11:57N 44°24' E 008°54'0 0.0
2018-Feb-12 11:30N 44°24' E 008°54'0 0.0
2018-Feb-12 11:00N 44°24' E 008°54'0 0.0
2018-Feb-12 10:30N 44°24' E 008°54'0 0.0
2018-Feb-12 10:00N 44°24' E 008°54'0 0.0
2018-Feb-12 09:30N 44°24' E 008°54'0 0.0
2018-Feb-12 09:00N 44°24' E 008°54'0 0.0
2018-Feb-12 08:30N 44°24' E 008°54'0 0.0
2018-Feb-12 08:00N 44°24' E 008°54'0 0.0
2018-Feb-12 07:30N 44°24' E 008°54'0 0.0
2018-Feb-12 07:00N 44°24' E 008°54'0 0.0
2018-Feb-12 06:30N 44°24' E 008°54'0 0.6
2018-Feb-12 06:01N 44°24' E 008°54'3 6.3
2018-Feb-12 05:31N 44°22' E 008°58'611.4
2018-Feb-12 05:01N 44°16' E 008°58'611.4
2018-Feb-12 04:30N 44°11' E 008°55'510.3
2018-Feb-12 04:01N 44°07' E 008°51'0 0.4
2018-Feb-12 03:31N 44°07' E 008°51'1 1.3
2018-Feb-12 03:01N 44°07' E 008°52'1 1.3
2018-Feb-12 02:30N 44°08' E 008°53'1 1.4
2018-Feb-12 02:00N 44°08' E 008°53'1 1.4
2018-Feb-12 01:29N 44°09' E 008°54'0 1.0
2018-Feb-12 01:00N 44°09' E 008°55'0 0.7
2018-Feb-12 00:30N 44°09' E 008°55'0 0.3
2018-Feb-12 00:01N 44°09' E 008°55'0 0.2
2018-Feb-11 23:30N 44°09' E 008°55'0 0.5
2018-Feb-11 23:01N 44°09' E 008°56'0 0.5
2018-Feb-11 22:30N 44°09' E 008°56'0 0.4
2018-Feb-11 22:00N 44°09' E 008°56'0 0.3
2018-Feb-11 21:31N 44°09' E 008°56'0 0.2
2018-Feb-11 21:00N 44°09' E 008°56'0 0.5
2018-Feb-11 20:31N 44°09' E 008°55'0 0.6
2018-Feb-11 20:01N 44°09' E 008°55'0 0.5
2018-Feb-11 19:31N 44°09' E 008°55'0 0.5
2018-Feb-11 19:01N 44°09' E 008°54'0 0.6
2018-Feb-11 18:31N 44°09' E 008°54'4 8.5
2018-Feb-11 18:00N 44°14' E 008°55'612.1
2018-Feb-11 17:30N 44°20' E 008°56'1 2.5
2018-Feb-11 17:00N 44°21' E 008°57'4 8.4
2018-Feb-11 16:30N 44°18' E 008°53'1 1.3
2018-Feb-11 16:01N 44°17' E 008°52'0 0.5
2018-Feb-11 15:31N 44°17' E 008°53'2 4.4
2018-Feb-11 15:01N 44°18' E 008°56'4 7.7
2018-Feb-11 14:31N 44°14' E 008°58'611.4
2018-Feb-11 14:00N 44°09' E 008°55'611.3
2018-Feb-11 13:31N 44°04' E 008°52'510.4
2018-Feb-11 13:01N 43°60' E 008°47'611.5
2018-Feb-11 12:30N 43°55' E 008°42'611.5
2018-Feb-11 12:00N 43°51' E 008°37'611.7
2018-Feb-11 11:31N 43°46' E 008°32'611.9
2018-Feb-11 11:00N 43°41' E 008°27'5011.5
2018-Feb-11 06:41N 43°19' E 007°26'211.6
2018-Feb-11 06:30N 43°18' E 007°24'611.5
2018-Feb-11 06:00N 43°15' E 007°17'611.4
2018-Feb-11 05:29N 43°12' E 007°10'511.2
2018-Feb-11 05:01N 43°09' E 007°04'90 9.2
2018-Feb-10 19:13N 43°12' E 005°01'312.3
2018-Feb-10 18:59N 43°15' E 005°00'612.7
2018-Feb-10 18:30N 43°21' E 004°58'3 5.5
2018-Feb-10 17:55N 43°24' E 004°60'0 0.0
2018-Feb-10 17:28N 43°24' E 004°60'0 0.0
2018-Feb-10 16:58N 43°24' E 004°60'0 0.0
2018-Feb-10 16:28N 43°24' E 004°60'0 0.0
2018-Feb-10 15:58N 43°24' E 004°60'0 0.0
2018-Feb-10 15:28N 43°24' E 004°60'0 0.0
2018-Feb-10 14:58N 43°24' E 004°60'0 0.0
2018-Feb-10 14:28N 43°24' E 004°60'0 0.0
2018-Feb-10 13:58N 43°24' E 004°60'0 0.0
2018-Feb-10 13:28N 43°24' E 004°60'0 0.0
2018-Feb-10 12:58N 43°24' E 004°60'0 0.0
2018-Feb-10 12:28N 43°24' E 004°60'0 0.0
2018-Feb-10 11:58N 43°24' E 004°60'0 0.0
2018-Feb-10 11:28N 43°24' E 004°60'0 0.0
2018-Feb-10 10:58N 43°24' E 004°60'0 0.0
2018-Feb-10 10:28N 43°24' E 004°60'0 0.0
2018-Feb-10 09:58N 43°24' E 004°60'0 0.0
2018-Feb-10 09:28N 43°24' E 004°60'0 0.0
2018-Feb-10 08:55N 43°24' E 004°60'0 0.0
2018-Feb-10 08:28N 43°24' E 004°60'0 0.0
2018-Feb-10 07:58N 43°24' E 004°60'0 0.0
2018-Feb-10 07:28N 43°24' E 004°60'0 0.0
2018-Feb-10 06:58N 43°24' E 004°60'0 0.0
2018-Feb-10 06:28N 43°24' E 004°60'0 0.0
2018-Feb-10 05:58N 43°24' E 004°60'0 0.0
2018-Feb-10 05:28N 43°24' E 004°60'0 0.0
2018-Feb-10 04:58N 43°24' E 004°60'0 0.0
2018-Feb-10 04:28N 43°24' E 004°60'0 0.0
2018-Feb-10 03:58N 43°24' E 004°60'0 0.0
2018-Feb-10 03:25N 43°24' E 004°60'0 0.0
2018-Feb-10 02:58N 43°24' E 004°60'0 0.0
2018-Feb-10 02:28N 43°24' E 004°60'0 0.0
2018-Feb-10 01:58N 43°24' E 004°60'0 0.0
2018-Feb-10 01:31N 43°24' E 004°60'1 1.1
2018-Feb-10 01:00N 43°24' E 004°59'2 4.1
2018-Feb-10 00:29N 43°25' E 004°57'0 0.0
2018-Feb-09 23:59N 43°25' E 004°57'0 0.0
2018-Feb-09 23:29N 43°25' E 004°57'0 0.0
2018-Feb-09 22:59N 43°25' E 004°57'0 0.0
2018-Feb-09 22:44N 43°25' E 004°57'182 5.3
2018-Feb-08 12:30N 41°10' E 002°12'612.2
2018-Feb-08 12:00N 41°09' E 002°04'  
Track history (hours):
 
Tides and Currents Weather Stations Pressure Air Temp Water Temp Dewpoint Dewpoint Depression Visibility Wind Speed Wind Dir Waves Ship Positions

Atlantis Almeria

Last reported at 2018-Feb-16 21:26 UTC. Time now 2018-Feb-18 09:05 UTC.
Position N 43°11' E 009°09'.

Length 109 m; draft 6.3 m.

Type: Tanker. MMSI: 248483000.

Date/timePositionNaut miles runAvg speedWind from/ knotsBaromVisibWave heightAir tempDewpointWater temp
2018-Feb-16 21:26N 43°11' E 009°09'511.6
2018-Feb-16 21:00N 43°15' E 009°14'611.9
2018-Feb-16 20:30N 43°19' E 009°19'611.6
2018-Feb-16 20:00N 43°23' E 009°25'3 6.1
2018-Feb-16 19:30N 43°25' E 009°28'0 0.7
2018-Feb-16 19:00N 43°24' E 009°28'0 0.8
2018-Feb-16 18:30N 43°24' E 009°29'0 1.0
2018-Feb-16 18:00N 43°23' E 009°29'0 0.4
2018-Feb-16 17:30N 43°23' E 009°29'1411.1
2018-Feb-16 16:17N 43°18' E 009°46'411.5
2018-Feb-16 15:58N 43°17' E 009°51'511.8
2018-Feb-16 15:30N 43°19' E 009°58'611.5
2018-Feb-16 15:01N 43°22' E 010°05'611.6
2018-Feb-16 14:30N 43°27' E 010°09'5 9.2
2018-Feb-16 14:00N 43°31' E 010°13'4 8.0
2018-Feb-16 13:31N 43°33' E 010°18'2 2.9
2018-Feb-16 12:52N 43°34' E 010°19'0 0.0
2018-Feb-16 12:29N 43°34' E 010°19'0 0.0
2018-Feb-16 11:59N 43°34' E 010°19'0 0.0
2018-Feb-16 11:29N 43°34' E 010°19'0 0.0
2018-Feb-16 10:59N 43°34' E 010°19'0 0.0
2018-Feb-16 10:29N 43°34' E 010°19'0 0.0
2018-Feb-16 09:59N 43°34' E 010°19'0 0.0
2018-Feb-16 09:29N 43°34' E 010°19'0 0.0
2018-Feb-16 08:59N 43°34' E 010°19'0 0.0
2018-Feb-16 08:26N 43°34' E 010°19'0 0.0
2018-Feb-16 07:56N 43°34' E 010°19'0 0.0
2018-Feb-16 07:23N 43°34' E 010°19'0 0.0
2018-Feb-16 06:59N 43°34' E 010°19'0 0.0
2018-Feb-16 06:29N 43°34' E 010°19'0 0.0
2018-Feb-16 05:59N 43°34' E 010°19'0 0.0
2018-Feb-16 05:29N 43°34' E 010°19'0 0.0
2018-Feb-16 04:50N 43°34' E 010°19'0 0.0
2018-Feb-16 04:29N 43°34' E 010°19'0 0.0
2018-Feb-16 03:59N 43°34' E 010°19'0 0.0
2018-Feb-16 03:29N 43°34' E 010°19'0 0.0
2018-Feb-16 02:59N 43°34' E 010°19'0 0.0
2018-Feb-16 02:29N 43°34' E 010°19'0 0.0
2018-Feb-16 01:59N 43°34' E 010°19'0 0.0
2018-Feb-16 01:26N 43°34' E 010°19'0 0.0
2018-Feb-16 00:59N 43°34' E 010°19'0 0.0
2018-Feb-16 00:29N 43°34' E 010°19'0 0.0
2018-Feb-15 23:59N 43°34' E 010°19'0 0.0
2018-Feb-15 23:26N 43°34' E 010°19'0 0.0
2018-Feb-15 22:59N 43°34' E 010°19'0 0.0
2018-Feb-15 22:29N 43°34' E 010°19'0 0.0
2018-Feb-15 21:59N 43°34' E 010°19'0 0.0
2018-Feb-15 21:29N 43°34' E 010°19'0 0.0
2018-Feb-15 20:59N 43°34' E 010°19'0 0.0
2018-Feb-15 20:29N 43°34' E 010°19'0 0.0
2018-Feb-15 19:59N 43°34' E 010°19'0 0.0
2018-Feb-15 19:29N 43°34' E 010°19'0 0.0
2018-Feb-15 18:59N 43°34' E 010°19'0 0.0
2018-Feb-15 18:29N 43°34' E 010°19'0 0.0
2018-Feb-15 17:59N 43°34' E 010°19'0 0.0
2018-Feb-15 17:29N 43°34' E 010°19'0 0.0
2018-Feb-15 16:59N 43°34' E 010°19'0 0.0
2018-Feb-15 16:23N 43°34' E 010°19'0 0.0
2018-Feb-15 15:59N 43°34' E 010°19'0 0.0
2018-Feb-15 15:29N 43°34' E 010°19'0 0.0
2018-Feb-15 14:59N 43°34' E 010°19'0 0.0
2018-Feb-15 14:23N 43°34' E 010°19'0 0.0
2018-Feb-15 13:56N 43°34' E 010°19'0 0.0
2018-Feb-15 13:26N 43°34' E 010°19'0 0.0
2018-Feb-15 12:59N 43°34' E 010°19'0 0.0
2018-Feb-15 12:29N 43°34' E 010°19'0 0.0
2018-Feb-15 11:59N 43°34' E 010°19'0 0.0
2018-Feb-15 11:29N 43°34' E 010°19'0 0.0
2018-Feb-15 10:59N 43°34' E 010°19'0 0.0
2018-Feb-15 10:29N 43°34' E 010°19'0 0.0
2018-Feb-15 09:59N 43°34' E 010°19'0 0.0
2018-Feb-15 09:29N 43°34' E 010°19'0 0.0
2018-Feb-15 08:59N 43°34' E 010°19'0 0.0
2018-Feb-15 08:29N 43°34' E 010°19'0 0.0
2018-Feb-15 07:59N 43°34' E 010°19'0 0.0
2018-Feb-15 07:29N 43°34' E 010°19'0 0.0
2018-Feb-15 06:59N 43°34' E 010°19'0 0.0
2018-Feb-15 06:23N 43°34' E 010°19'0 0.0
2018-Feb-15 05:59N 43°34' E 010°19'0 0.0
2018-Feb-15 05:29N 43°34' E 010°19'0 0.0
2018-Feb-15 04:59N 43°34' E 010°19'0 0.0
2018-Feb-15 04:29N 43°34' E 010°19'0 0.0
2018-Feb-15 03:59N 43°34' E 010°19'0 0.0
2018-Feb-15 03:29N 43°34' E 010°19'0 0.0
2018-Feb-15 02:59N 43°34' E 010°19'0 0.0
2018-Feb-15 02:29N 43°34' E 010°19'0 0.0
2018-Feb-15 01:59N 43°34' E 010°19'0 0.0
2018-Feb-15 01:29N 43°34' E 010°19'0 0.0
2018-Feb-15 00:59N 43°34' E 010°19'0 0.0
2018-Feb-15 00:29N 43°34' E 010°19'0 0.0
2018-Feb-14 23:59N 43°34' E 010°19'0 0.0
2018-Feb-14 23:29N 43°34' E 010°19'0 0.0
2018-Feb-14 22:59N 43°34' E 010°19'0 0.0
2018-Feb-14 22:29N 43°34' E 010°19'0 0.0
2018-Feb-14 21:59N 43°34' E 010°19'0 0.0
2018-Feb-14 21:29N 43°34' E 010°19'0 0.0
2018-Feb-14 20:59N 43°34' E 010°19'0 0.0
2018-Feb-14 20:29N 43°34' E 010°19'0 0.0
2018-Feb-14 19:59N 43°34' E 010°19'0 0.0
2018-Feb-14 19:29N 43°34' E 010°19'0 0.0
2018-Feb-14 18:59N 43°34' E 010°19'0 0.0
2018-Feb-14 18:29N 43°34' E 010°19'0 0.0
2018-Feb-14 17:59N 43°34' E 010°19'0 0.0
2018-Feb-14 17:26N 43°34' E 010°19'0 0.0
2018-Feb-14 16:59N 43°34' E 010°19'0 0.0
2018-Feb-14 16:29N 43°34' E 010°19'0 0.0
2018-Feb-14 15:59N 43°34' E 010°19'0 0.0
2018-Feb-14 15:29N 43°34' E 010°19'0 0.0
2018-Feb-14 14:59N 43°34' E 010°19'0 0.0
2018-Feb-14 14:29N 43°34' E 010°19'0 0.0
2018-Feb-14 13:59N 43°34' E 010°19'0 0.0
2018-Feb-14 13:29N 43°34' E 010°19'0 0.0
2018-Feb-14 09:32N 43°34' E 010°19'0 1.1
2018-Feb-14 09:30N 43°34' E 010°19'2 5.0
2018-Feb-14 09:00N 43°32' E 010°17'3 6.3
2018-Feb-14 08:30N 43°30' E 010°15'1 2.2
2018-Feb-14 07:59N 43°29' E 010°16'0 0.1
2018-Feb-14 07:29N 43°29' E 010°16'0 0.1
2018-Feb-14 06:59N 43°29' E 010°16'0 0.0
2018-Feb-14 06:29N 43°29' E 010°16'0 0.1
2018-Feb-14 05:59N 43°29' E 010°16'0 0.0
2018-Feb-14 05:29N 43°29' E 010°16'0 0.0
2018-Feb-14 04:59N 43°29' E 010°16'0 0.2
2018-Feb-14 04:29N 43°29' E 010°16'0 0.1
2018-Feb-14 03:59N 43°29' E 010°16'0 0.2
2018-Feb-14 03:26N 43°29' E 010°16'0 0.0
2018-Feb-14 02:59N 43°29' E 010°16'0 0.0
2018-Feb-14 02:29N 43°29' E 010°16'0 0.0
2018-Feb-14 01:59N 43°29' E 010°16'0 0.2
2018-Feb-14 01:29N 43°29' E 010°16'0 0.1
2018-Feb-14 00:59N 43°29' E 010°16'0 0.0
2018-Feb-14 00:29N 43°29' E 010°16'0 0.1
2018-Feb-13 23:59N 43°29' E 010°16'0 0.0
2018-Feb-13 23:29N 43°29' E 010°16'0 0.0
2018-Feb-13 22:59N 43°29' E 010°16'0 0.0
2018-Feb-13 22:29N 43°29' E 010°16'0 0.0
2018-Feb-13 21:59N 43°29' E 010°16'0 0.0
2018-Feb-13 21:29N 43°29' E 010°16'0 0.1
2018-Feb-13 20:59N 43°29' E 010°16'0 0.0
2018-Feb-13 20:29N 43°29' E 010°16'0 0.0
2018-Feb-13 19:59N 43°29' E 010°16'0 0.0
2018-Feb-13 19:29N 43°29' E 010°16'0 0.1
2018-Feb-13 18:56N 43°29' E 010°16'0 0.1
2018-Feb-13 18:29N 43°29' E 010°16'0 0.0
2018-Feb-13 17:56N 43°29' E 010°16'0 0.0
2018-Feb-13 17:17N 43°29' E 010°16'0 0.0
2018-Feb-13 16:59N 43°29' E 010°16'0 0.0
2018-Feb-13 16:29N 43°29' E 010°16'0 0.0
2018-Feb-13 15:59N 43°29' E 010°16'0 0.0
2018-Feb-13 15:29N 43°29' E 010°16'0 0.0
2018-Feb-13 14:59N 43°29' E 010°16'0 0.0
2018-Feb-13 14:29N 43°29' E 010°16'0 0.0
2018-Feb-13 13:56N 43°29' E 010°16'0 0.0
2018-Feb-13 13:29N 43°29' E 010°16'0 0.0
2018-Feb-13 12:59N 43°29' E 010°16'0 0.1
2018-Feb-13 12:29N 43°29' E 010°16'0 0.0
2018-Feb-13 11:59N 43°29' E 010°16'0 0.0
2018-Feb-13 11:23N 43°29' E 010°16'0 0.0
2018-Feb-13 10:59N 43°29' E 010°16'0 0.0
2018-Feb-13 10:29N 43°29' E 010°16'0 0.0
2018-Feb-13 09:59N 43°29' E 010°16'0 0.0
2018-Feb-13 09:29N 43°29' E 010°16'0 0.0
2018-Feb-13 08:59N 43°29' E 010°16'0 0.0
2018-Feb-13 08:29N 43°29' E 010°16'0 0.0
2018-Feb-13 07:59N 43°29' E 010°16'0 0.0
2018-Feb-13 07:29N 43°29' E 010°16'1 1.1
2018-Feb-13 07:00N 43°29' E 010°16'3 6.3
2018-Feb-13 06:30N 43°27' E 010°12'4 7.1
2018-Feb-13 06:00N 43°24' E 010°09'4 7.9
2018-Feb-13 05:30N 43°21' E 010°06'4 7.9
2018-Feb-13 05:00N 43°18' E 010°02'4 8.0
2018-Feb-13 04:30N 43°18' E 009°56'4 8.5
2018-Feb-13 04:00N 43°18' E 009°51'4 7.5
2018-Feb-13 03:30N 43°19' E 009°46'4 8.8
2018-Feb-13 03:00N 43°22' E 009°41'5 9.0
2018-Feb-13 02:30N 43°25' E 009°36'4 8.6
2018-Feb-13 02:00N 43°26' E 009°31'4 8.7
2018-Feb-13 01:30N 43°26' E 009°25'4 9.0
2018-Feb-13 01:00N 43°27' E 009°19'5 9.2
2018-Feb-13 00:30N 43°27' E 009°12'4 8.4
2018-Feb-13 00:00N 43°27' E 009°07'4 8.2
2018-Feb-12 23:30N 43°27' E 009°01'4 8.2
2018-Feb-12 23:00N 43°31' E 008°60'5 9.5
2018-Feb-12 22:30N 43°36' E 008°60'5 9.6
2018-Feb-12 22:00N 43°40' E 008°59'5 9.4
2018-Feb-12 21:30N 43°45' E 008°59'5 9.4
2018-Feb-12 21:00N 43°50' E 008°59'5 9.7
2018-Feb-12 20:30N 43°55' E 008°59'5 9.7
2018-Feb-12 20:00N 43°59' E 008°59'5 9.5
2018-Feb-12 19:30N 44°04' E 008°58'5 9.2
2018-Feb-12 19:00N 44°09' E 008°58'5 9.5
2018-Feb-12 18:30N 44°14' E 008°58'510.1
2018-Feb-12 18:00N 44°19' E 008°58'510.2
2018-Feb-12 17:30N 44°24' E 008°56'2 3.2
2018-Feb-12 17:00N 44°24' E 008°54'0 0.0
2018-Feb-12 16:27N 44°24' E 008°54'0 0.0
2018-Feb-12 16:00N 44°24' E 008°54'0 0.0
2018-Feb-12 15:06N 44°24' E 008°54'0 0.1
2018-Feb-12 15:00N 44°24' E 008°54'0 0.0
2018-Feb-12 14:27N 44°24' E 008°54'0 0.0
2018-Feb-12 13:57N 44°24' E 008°54'0 0.0
2018-Feb-12 13:30N 44°24' E 008°54'0 0.0
2018-Feb-12 12:57N 44°24' E 008°54'0 0.0
2018-Feb-12 12:30N 44°24' E 008°54'0 0.0
2018-Feb-12 11:57N 44°24' E 008°54'0 0.0
2018-Feb-12 11:30N 44°24' E 008°54'0 0.0
2018-Feb-12 11:00N 44°24' E 008°54'0 0.0
2018-Feb-12 10:30N 44°24' E 008°54'0 0.0
2018-Feb-12 10:00N 44°24' E 008°54'0 0.0
2018-Feb-12 09:30N 44°24' E 008°54'0 0.0
2018-Feb-12 09:00N 44°24' E 008°54'0 0.0
2018-Feb-12 08:30N 44°24' E 008°54'0 0.0
2018-Feb-12 08:00N 44°24' E 008°54'0 0.0
2018-Feb-12 07:30N 44°24' E 008°54'0 0.0
2018-Feb-12 07:00N 44°24' E 008°54'0 0.0
2018-Feb-12 06:30N 44°24' E 008°54'0 0.6
2018-Feb-12 06:01N 44°24' E 008°54'3 6.3
2018-Feb-12 05:31N 44°22' E 008°58'611.4
2018-Feb-12 05:01N 44°16' E 008°58'611.4
2018-Feb-12 04:30N 44°11' E 008°55'510.3
2018-Feb-12 04:01N 44°07' E 008°51'0 0.4
2018-Feb-12 03:31N 44°07' E 008°51'1 1.3
2018-Feb-12 03:01N 44°07' E 008°52'1 1.3
2018-Feb-12 02:30N 44°08' E 008°53'1 1.4
2018-Feb-12 02:00N 44°08' E 008°53'1 1.4
2018-Feb-12 01:29N 44°09' E 008°54'0 1.0
2018-Feb-12 01:00N 44°09' E 008°55'0 0.7
2018-Feb-12 00:30N 44°09' E 008°55'0 0.3
2018-Feb-12 00:01N 44°09' E 008°55'0 0.2
2018-Feb-11 23:30N 44°09' E 008°55'0 0.5
2018-Feb-11 23:01N 44°09' E 008°56'0 0.5
2018-Feb-11 22:30N 44°09' E 008°56'0 0.4
2018-Feb-11 22:00N 44°09' E 008°56'0 0.3
2018-Feb-11 21:31N 44°09' E 008°56'0 0.2
2018-Feb-11 21:00N 44°09' E 008°56'0 0.5
2018-Feb-11 20:31N 44°09' E 008°55'0 0.6
2018-Feb-11 20:01N 44°09' E 008°55'0 0.5
2018-Feb-11 19:31N 44°09' E 008°55'0 0.5
2018-Feb-11 19:01N 44°09' E 008°54'0 0.6
2018-Feb-11 18:31N 44°09' E 008°54'4 8.5
2018-Feb-11 18:00N 44°14' E 008°55'612.1
2018-Feb-11 17:30N 44°20' E 008°56'1 2.5
2018-Feb-11 17:00N 44°21' E 008°57'4 8.4
2018-Feb-11 16:30N 44°18' E 008°53'1 1.3
2018-Feb-11 16:01N 44°17' E 008°52'0 0.5
2018-Feb-11 15:31N 44°17' E 008°53'2 4.4
2018-Feb-11 15:01N 44°18' E 008°56'4 7.7
2018-Feb-11 14:31N 44°14' E 008°58'611.4
2018-Feb-11 14:00N 44°09' E 008°55'611.3
2018-Feb-11 13:31N 44°04' E 008°52'510.4
2018-Feb-11 13:01N 43°60' E 008°47'611.5
2018-Feb-11 12:30N 43°55' E 008°42'611.5
2018-Feb-11 12:00N 43°51' E 008°37'611.7
2018-Feb-11 11:31N 43°46' E 008°32'611.9
2018-Feb-11 11:00N 43°41' E 008°27'5011.5
2018-Feb-11 06:41N 43°19' E 007°26'211.6
2018-Feb-11 06:30N 43°18' E 007°24'611.5
2018-Feb-11 06:00N 43°15' E 007°17'611.4
2018-Feb-11 05:29N 43°12' E 007°10'511.2
2018-Feb-11 05:01N 43°09' E 007°04'90 9.2
2018-Feb-10 19:13N 43°12' E 005°01'312.3
2018-Feb-10 18:59N 43°15' E 005°00'612.7
2018-Feb-10 18:30N 43°21' E 004°58'3 5.5
2018-Feb-10 17:55N 43°24' E 004°60'0 0.0
2018-Feb-10 17:28N 43°24' E 004°60'0 0.0
2018-Feb-10 16:58N 43°24' E 004°60'0 0.0
2018-Feb-10 16:28N 43°24' E 004°60'0 0.0
2018-Feb-10 15:58N 43°24' E 004°60'0 0.0
2018-Feb-10 15:28N 43°24' E 004°60'0 0.0
2018-Feb-10 14:58N 43°24' E 004°60'0 0.0
2018-Feb-10 14:28N 43°24' E 004°60'0 0.0
2018-Feb-10 13:58N 43°24' E 004°60'0 0.0
2018-Feb-10 13:28N 43°24' E 004°60'0 0.0
2018-Feb-10 12:58N 43°24' E 004°60'0 0.0
2018-Feb-10 12:28N 43°24' E 004°60'0 0.0
2018-Feb-10 11:58N 43°24' E 004°60'0 0.0
2018-Feb-10 11:28N 43°24' E 004°60'0 0.0
2018-Feb-10 10:58N 43°24' E 004°60'0 0.0
2018-Feb-10 10:28N 43°24' E 004°60'0 0.0
2018-Feb-10 09:58N 43°24' E 004°60'0 0.0
2018-Feb-10 09:28N 43°24' E 004°60'0 0.0
2018-Feb-10 08:55N 43°24' E 004°60'0 0.0
2018-Feb-10 08:28N 43°24' E 004°60'0 0.0
2018-Feb-10 07:58N 43°24' E 004°60'0 0.0
2018-Feb-10 07:28N 43°24' E 004°60'0 0.0
2018-Feb-10 06:58N 43°24' E 004°60'0 0.0
2018-Feb-10 06:28N 43°24' E 004°60'0 0.0
2018-Feb-10 05:58N 43°24' E 004°60'0 0.0
2018-Feb-10 05:28N 43°24' E 004°60'0 0.0
2018-Feb-10 04:58N 43°24' E 004°60'0 0.0
2018-Feb-10 04:28N 43°24' E 004°60'0 0.0
2018-Feb-10 03:58N 43°24' E 004°60'0 0.0
2018-Feb-10 03:25N 43°24' E 004°60'0 0.0
2018-Feb-10 02:58N 43°24' E 004°60'0 0.0
2018-Feb-10 02:28N 43°24' E 004°60'0 0.0
2018-Feb-10 01:58N 43°24' E 004°60'0 0.0
2018-Feb-10 01:31N 43°24' E 004°60'1 1.1
2018-Feb-10 01:00N 43°24' E 004°59'2 4.1
2018-Feb-10 00:29N 43°25' E 004°57'0 0.0
2018-Feb-09 23:59N 43°25' E 004°57'0 0.0
2018-Feb-09 23:29N 43°25' E 004°57'0 0.0
2018-Feb-09 22:59N 43°25' E 004°57'0 0.0
2018-Feb-09 22:44N 43°25' E 004°57'182 5.3
2018-Feb-08 12:30N 41°10' E 002°12'612.2
2018-Feb-08 12:00N 41°09' E 002°04'  

Dump ship's entire track history